sensor_id;sensor_type;location;lat;lon;timestamp;P1;durP1;ratioP1;P2;durP2;ratioP2
13660;SDS011;6903;49.480;11.102;2022-12-07T00:03:52;9.83;;;8.40;;
13660;SDS011;6903;49.480;11.102;2022-12-07T00:06:22;9.00;;;8.03;;
13660;SDS011;6903;49.480;11.102;2022-12-07T00:08:47;10.47;;;8.57;;
13660;SDS011;6903;49.480;11.102;2022-12-07T00:11:14;10.13;;;9.07;;
13660;SDS011;6903;49.480;11.102;2022-12-07T00:13:41;10.53;;;9.40;;
13660;SDS011;6903;49.480;11.102;2022-12-07T00:16:08;10.03;;;8.70;;
13660;SDS011;6903;49.480;11.102;2022-12-07T00:18:38;10.07;;;8.30;;
13660;SDS011;6903;49.480;11.102;2022-12-07T00:21:09;9.90;;;8.90;;
13660;SDS011;6903;49.480;11.102;2022-12-07T00:23:37;10.40;;;8.63;;
13660;SDS011;6903;49.480;11.102;2022-12-07T00:26:04;10.07;;;8.50;;
13660;SDS011;6903;49.480;11.102;2022-12-07T00:28:31;9.20;;;8.17;;
13660;SDS011;6903;49.480;11.102;2022-12-07T00:31:03;9.73;;;8.63;;
13660;SDS011;6903;49.480;11.102;2022-12-07T00:33:34;9.50;;;8.03;;
13660;SDS011;6903;49.480;11.102;2022-12-07T00:36:00;10.90;;;9.63;;
13660;SDS011;6903;49.480;11.102;2022-12-07T00:38:27;10.10;;;8.90;;
13660;SDS011;6903;49.480;11.102;2022-12-07T00:40:55;10.73;;;9.47;;
13660;SDS011;6903;49.480;11.102;2022-12-07T00:43:21;10.37;;;8.90;;
13660;SDS011;6903;49.480;11.102;2022-12-07T00:45:47;10.37;;;8.60;;
13660;SDS011;6903;49.480;11.102;2022-12-07T00:48:12;12.27;;;9.03;;
13660;SDS011;6903;49.480;11.102;2022-12-07T00:50:37;11.37;;;9.37;;
13660;SDS011;6903;49.480;11.102;2022-12-07T00:53:02;10.80;;;8.73;;
13660;SDS011;6903;49.480;11.102;2022-12-07T00:55:28;10.80;;;9.23;;
13660;SDS011;6903;49.480;11.102;2022-12-07T00:57:57;10.30;;;9.20;;
13660;SDS011;6903;49.480;11.102;2022-12-07T01:00:22;11.57;;;9.67;;
13660;SDS011;6903;49.480;11.102;2022-12-07T01:02:47;11.37;;;9.13;;
13660;SDS011;6903;49.480;11.102;2022-12-07T01:05:13;12.70;;;9.83;;
13660;SDS011;6903;49.480;11.102;2022-12-07T01:07:38;10.63;;;9.03;;
13660;SDS011;6903;49.480;11.102;2022-12-07T01:10:03;12.10;;;9.70;;
13660;SDS011;6903;49.480;11.102;2022-12-07T01:12:29;12.67;;;9.50;;
13660;SDS011;6903;49.480;11.102;2022-12-07T01:14:55;13.23;;;9.73;;
13660;SDS011;6903;49.480;11.102;2022-12-07T01:17:20;12.10;;;10.27;;
13660;SDS011;6903;49.480;11.102;2022-12-07T01:19:45;11.90;;;9.70;;
13660;SDS011;6903;49.480;11.102;2022-12-07T01:22:10;11.40;;;8.97;;
13660;SDS011;6903;49.480;11.102;2022-12-07T01:24:36;11.53;;;9.53;;
13660;SDS011;6903;49.480;11.102;2022-12-07T01:27:01;12.70;;;10.33;;
13660;SDS011;6903;49.480;11.102;2022-12-07T01:29:26;12.83;;;10.20;;
13660;SDS011;6903;49.480;11.102;2022-12-07T01:31:52;11.97;;;9.93;;
13660;SDS011;6903;49.480;11.102;2022-12-07T01:34:17;12.13;;;10.23;;
13660;SDS011;6903;49.480;11.102;2022-12-07T01:36:42;11.60;;;9.87;;
13660;SDS011;6903;49.480;11.102;2022-12-07T01:39:09;13.23;;;10.60;;
13660;SDS011;6903;49.480;11.102;2022-12-07T01:41:36;14.23;;;11.40;;
13660;SDS011;6903;49.480;11.102;2022-12-07T01:44:24;12.87;;;10.30;;
13660;SDS011;6903;49.480;11.102;2022-12-07T01:46:55;13.50;;;10.83;;
13660;SDS011;6903;49.480;11.102;2022-12-07T01:49:35;13.57;;;10.60;;
13660;SDS011;6903;49.480;11.102;2022-12-07T01:54:42;14.67;;;11.00;;
13660;SDS011;6903;49.480;11.102;2022-12-07T01:57:08;14.23;;;11.30;;
13660;SDS011;6903;49.480;11.102;2022-12-07T01:59:35;14.63;;;11.77;;
13660;SDS011;6903;49.480;11.102;2022-12-07T02:02:01;14.10;;;10.23;;
13660;SDS011;6903;49.480;11.102;2022-12-07T02:04:32;15.97;;;11.57;;
13660;SDS011;6903;49.480;11.102;2022-12-07T02:06:58;14.27;;;11.20;;
13660;SDS011;6903;49.480;11.102;2022-12-07T02:09:24;14.33;;;11.80;;
13660;SDS011;6903;49.480;11.102;2022-12-07T02:11:49;14.73;;;11.47;;
13660;SDS011;6903;49.480;11.102;2022-12-07T02:14:15;13.83;;;10.87;;
13660;SDS011;6903;49.480;11.102;2022-12-07T02:27:50;15.23;;;11.60;;
13660;SDS011;6903;49.480;11.102;2022-12-07T02:30:27;15.87;;;11.27;;
13660;SDS011;6903;49.480;11.102;2022-12-07T02:38:35;15.13;;;11.33;;
13660;SDS011;6903;49.480;11.102;2022-12-07T02:41:09;15.97;;;11.70;;
13660;SDS011;6903;49.480;11.102;2022-12-07T02:43:53;14.80;;;11.87;;
13660;SDS011;6903;49.480;11.102;2022-12-07T02:46:27;16.60;;;12.27;;
13660;SDS011;6903;49.480;11.102;2022-12-07T02:48:56;16.10;;;12.43;;
13660;SDS011;6903;49.480;11.102;2022-12-07T02:51:24;14.67;;;11.77;;
13660;SDS011;6903;49.480;11.102;2022-12-07T02:53:49;17.23;;;12.47;;
13660;SDS011;6903;49.480;11.102;2022-12-07T02:56:21;15.63;;;12.27;;
13660;SDS011;6903;49.480;11.102;2022-12-07T03:05:10;16.17;;;11.73;;
13660;SDS011;6903;49.480;11.102;2022-12-07T03:10:48;14.97;;;10.93;;
13660;SDS011;6903;49.480;11.102;2022-12-07T03:18:25;19.07;;;13.33;;
13660;SDS011;6903;49.480;11.102;2022-12-07T03:20:55;18.07;;;12.57;;
13660;SDS011;6903;49.480;11.102;2022-12-07T03:23:23;18.93;;;13.17;;
13660;SDS011;6903;49.480;11.102;2022-12-07T03:25:53;21.20;;;13.70;;
13660;SDS011;6903;49.480;11.102;2022-12-07T03:28:23;17.27;;;12.70;;
13660;SDS011;6903;49.480;11.102;2022-12-07T03:30:56;20.07;;;13.43;;
13660;SDS011;6903;49.480;11.102;2022-12-07T03:33:28;18.33;;;12.70;;
13660;SDS011;6903;49.480;11.102;2022-12-07T03:36:04;19.00;;;13.07;;
13660;SDS011;6903;49.480;11.102;2022-12-07T03:38:32;21.67;;;14.47;;
13660;SDS011;6903;49.480;11.102;2022-12-07T03:41:08;18.07;;;12.70;;
13660;SDS011;6903;49.480;11.102;2022-12-07T03:43:39;20.87;;;13.30;;
13660;SDS011;6903;49.480;11.102;2022-12-07T03:48:59;21.27;;;13.73;;
13660;SDS011;6903;49.480;11.102;2022-12-07T03:54:36;18.47;;;13.07;;
13660;SDS011;6903;49.480;11.102;2022-12-07T03:57:05;17.50;;;12.40;;
13660;SDS011;6903;49.480;11.102;2022-12-07T03:59:33;19.40;;;13.40;;
13660;SDS011;6903;49.480;11.102;2022-12-07T04:02:03;19.80;;;13.27;;
13660;SDS011;6903;49.480;11.102;2022-12-07T04:04:30;20.37;;;13.63;;
13660;SDS011;6903;49.480;11.102;2022-12-07T04:06:56;19.97;;;13.10;;
13660;SDS011;6903;49.480;11.102;2022-12-07T04:09:22;21.30;;;13.70;;
13660;SDS011;6903;49.480;11.102;2022-12-07T04:11:47;21.17;;;14.00;;
13660;SDS011;6903;49.480;11.102;2022-12-07T04:14:13;20.93;;;13.70;;
13660;SDS011;6903;49.480;11.102;2022-12-07T04:16:48;21.73;;;14.17;;
13660;SDS011;6903;49.480;11.102;2022-12-07T04:19:17;23.20;;;14.13;;
13660;SDS011;6903;49.480;11.102;2022-12-07T04:21:43;22.67;;;14.80;;
13660;SDS011;6903;49.480;11.102;2022-12-07T04:24:09;23.40;;;15.40;;
13660;SDS011;6903;49.480;11.102;2022-12-07T04:26:35;25.07;;;15.77;;
13660;SDS011;6903;49.480;11.102;2022-12-07T04:29:01;25.40;;;15.33;;
13660;SDS011;6903;49.480;11.102;2022-12-07T04:31:26;28.67;;;15.53;;
13660;SDS011;6903;49.480;11.102;2022-12-07T04:33:51;26.00;;;15.77;;
13660;SDS011;6903;49.480;11.102;2022-12-07T04:36:16;25.77;;;15.53;;
13660;SDS011;6903;49.480;11.102;2022-12-07T04:38:42;22.47;;;13.83;;
13660;SDS011;6903;49.480;11.102;2022-12-07T04:41:08;28.77;;;17.13;;
13660;SDS011;6903;49.480;11.102;2022-12-07T04:43:34;26.70;;;17.17;;
13660;SDS011;6903;49.480;11.102;2022-12-07T04:45:59;30.03;;;17.43;;
13660;SDS011;6903;49.480;11.102;2022-12-07T04:48:25;26.10;;;16.90;;
13660;SDS011;6903;49.480;11.102;2022-12-07T04:50:50;28.20;;;16.60;;
13660;SDS011;6903;49.480;11.102;2022-12-07T04:53:16;26.73;;;16.47;;
13660;SDS011;6903;49.480;11.102;2022-12-07T04:55:41;31.33;;;17.77;;
13660;SDS011;6903;49.480;11.102;2022-12-07T04:58:07;27.97;;;18.27;;
13660;SDS011;6903;49.480;11.102;2022-12-07T05:00:32;34.33;;;18.97;;
13660;SDS011;6903;49.480;11.102;2022-12-07T05:02:57;31.77;;;18.00;;
13660;SDS011;6903;49.480;11.102;2022-12-07T05:05:23;31.77;;;18.53;;
13660;SDS011;6903;49.480;11.102;2022-12-07T05:07:49;34.00;;;19.17;;
13660;SDS011;6903;49.480;11.102;2022-12-07T05:10:15;28.57;;;17.73;;
13660;SDS011;6903;49.480;11.102;2022-12-07T05:12:40;31.83;;;19.10;;
13660;SDS011;6903;49.480;11.102;2022-12-07T05:15:05;32.23;;;19.43;;
13660;SDS011;6903;49.480;11.102;2022-12-07T05:17:31;31.43;;;18.93;;
13660;SDS011;6903;49.480;11.102;2022-12-07T05:19:56;32.83;;;19.23;;
13660;SDS011;6903;49.480;11.102;2022-12-07T05:22:21;31.17;;;18.50;;
13660;SDS011;6903;49.480;11.102;2022-12-07T05:24:47;34.10;;;19.50;;
13660;SDS011;6903;49.480;11.102;2022-12-07T05:27:12;33.47;;;19.13;;
13660;SDS011;6903;49.480;11.102;2022-12-07T05:29:37;32.03;;;19.30;;
13660;SDS011;6903;49.480;11.102;2022-12-07T05:32:03;31.27;;;19.00;;
13660;SDS011;6903;49.480;11.102;2022-12-07T05:34:28;29.80;;;19.07;;
13660;SDS011;6903;49.480;11.102;2022-12-07T05:36:53;32.07;;;19.40;;
13660;SDS011;6903;49.480;11.102;2022-12-07T05:39:19;30.07;;;18.47;;
13660;SDS011;6903;49.480;11.102;2022-12-07T05:41:44;31.73;;;17.93;;
13660;SDS011;6903;49.480;11.102;2022-12-07T05:44:28;29.67;;;17.37;;
13660;SDS011;6903;49.480;11.102;2022-12-07T05:46:54;33.23;;;18.50;;
13660;SDS011;6903;49.480;11.102;2022-12-07T05:49:19;31.40;;;18.30;;
13660;SDS011;6903;49.480;11.102;2022-12-07T05:51:44;30.23;;;18.57;;
13660;SDS011;6903;49.480;11.102;2022-12-07T05:54:10;31.93;;;20.17;;
13660;SDS011;6903;49.480;11.102;2022-12-07T05:56:35;30.37;;;18.07;;
13660;SDS011;6903;49.480;11.102;2022-12-07T05:59:00;28.57;;;17.27;;
13660;SDS011;6903;49.480;11.102;2022-12-07T06:01:44;26.90;;;16.50;;
13660;SDS011;6903;49.480;11.102;2022-12-07T06:04:10;28.40;;;17.63;;
13660;SDS011;6903;49.480;11.102;2022-12-07T06:06:35;26.60;;;17.27;;
13660;SDS011;6903;49.480;11.102;2022-12-07T06:09:00;29.27;;;18.17;;
13660;SDS011;6903;49.480;11.102;2022-12-07T06:11:26;29.23;;;18.53;;
13660;SDS011;6903;49.480;11.102;2022-12-07T06:14:10;30.57;;;17.13;;
13660;SDS011;6903;49.480;11.102;2022-12-07T06:16:35;27.93;;;17.70;;
13660;SDS011;6903;49.480;11.102;2022-12-07T06:19:00;29.13;;;17.40;;
13660;SDS011;6903;49.480;11.102;2022-12-07T06:21:26;28.03;;;17.30;;
13660;SDS011;6903;49.480;11.102;2022-12-07T06:23:51;29.33;;;17.63;;
13660;SDS011;6903;49.480;11.102;2022-12-07T06:26:17;32.43;;;18.57;;
13660;SDS011;6903;49.480;11.102;2022-12-07T06:28:43;28.63;;;17.73;;
13660;SDS011;6903;49.480;11.102;2022-12-07T06:31:08;26.67;;;16.23;;
13660;SDS011;6903;49.480;11.102;2022-12-07T06:33:33;26.13;;;15.90;;
13660;SDS011;6903;49.480;11.102;2022-12-07T06:35:59;24.33;;;15.77;;
13660;SDS011;6903;49.480;11.102;2022-12-07T06:38:24;27.33;;;16.53;;
13660;SDS011;6903;49.480;11.102;2022-12-07T06:40:49;29.13;;;16.43;;
13660;SDS011;6903;49.480;11.102;2022-12-07T06:43:15;27.43;;;16.87;;
13660;SDS011;6903;49.480;11.102;2022-12-07T06:45:40;25.43;;;16.30;;
13660;SDS011;6903;49.480;11.102;2022-12-07T06:48:06;26.87;;;16.63;;
13660;SDS011;6903;49.480;11.102;2022-12-07T06:50:31;23.23;;;15.77;;
13660;SDS011;6903;49.480;11.102;2022-12-07T06:52:57;23.43;;;15.67;;
13660;SDS011;6903;49.480;11.102;2022-12-07T06:55:22;22.00;;;14.13;;
13660;SDS011;6903;49.480;11.102;2022-12-07T06:57:47;24.83;;;15.67;;
13660;SDS011;6903;49.480;11.102;2022-12-07T07:00:13;26.70;;;16.00;;
13660;SDS011;6903;49.480;11.102;2022-12-07T07:02:39;26.37;;;16.77;;
13660;SDS011;6903;49.480;11.102;2022-12-07T07:05:04;22.47;;;14.67;;
13660;SDS011;6903;49.480;11.102;2022-12-07T07:07:29;24.43;;;16.00;;
13660;SDS011;6903;49.480;11.102;2022-12-07T07:09:55;24.40;;;15.80;;
13660;SDS011;6903;49.480;11.102;2022-12-07T07:12:20;24.13;;;15.47;;
13660;SDS011;6903;49.480;11.102;2022-12-07T07:14:46;25.10;;;15.73;;
13660;SDS011;6903;49.480;11.102;2022-12-07T07:17:11;26.20;;;16.10;;
13660;SDS011;6903;49.480;11.102;2022-12-07T07:19:36;25.33;;;16.13;;
13660;SDS011;6903;49.480;11.102;2022-12-07T07:22:02;23.77;;;15.07;;
13660;SDS011;6903;49.480;11.102;2022-12-07T07:24:28;23.33;;;15.40;;
13660;SDS011;6903;49.480;11.102;2022-12-07T07:26:53;24.80;;;15.70;;
13660;SDS011;6903;49.480;11.102;2022-12-07T07:29:19;22.97;;;14.23;;
13660;SDS011;6903;49.480;11.102;2022-12-07T07:31:44;24.63;;;14.57;;
13660;SDS011;6903;49.480;11.102;2022-12-07T07:34:10;25.77;;;14.17;;
13660;SDS011;6903;49.480;11.102;2022-12-07T07:36:35;22.60;;;14.50;;
13660;SDS011;6903;49.480;11.102;2022-12-07T07:39:00;24.43;;;15.50;;
13660;SDS011;6903;49.480;11.102;2022-12-07T07:41:26;23.13;;;14.20;;
13660;SDS011;6903;49.480;11.102;2022-12-07T07:43:51;21.13;;;14.03;;
13660;SDS011;6903;49.480;11.102;2022-12-07T07:46:16;21.87;;;14.33;;
13660;SDS011;6903;49.480;11.102;2022-12-07T07:48:42;22.60;;;15.07;;
13660;SDS011;6903;49.480;11.102;2022-12-07T07:51:07;22.87;;;14.93;;
13660;SDS011;6903;49.480;11.102;2022-12-07T07:53:33;20.07;;;13.67;;
13660;SDS011;6903;49.480;11.102;2022-12-07T07:55:58;22.70;;;14.73;;
13660;SDS011;6903;49.480;11.102;2022-12-07T07:58:24;22.57;;;14.50;;
13660;SDS011;6903;49.480;11.102;2022-12-07T08:00:49;20.80;;;13.93;;
13660;SDS011;6903;49.480;11.102;2022-12-07T08:03:14;24.50;;;15.20;;
13660;SDS011;6903;49.480;11.102;2022-12-07T08:05:40;22.27;;;14.13;;
13660;SDS011;6903;49.480;11.102;2022-12-07T08:08:05;20.77;;;13.47;;
13660;SDS011;6903;49.480;11.102;2022-12-07T08:10:31;23.10;;;14.20;;
13660;SDS011;6903;49.480;11.102;2022-12-07T08:12:57;22.43;;;15.03;;
13660;SDS011;6903;49.480;11.102;2022-12-07T08:15:35;20.93;;;13.40;;
13660;SDS011;6903;49.480;11.102;2022-12-07T08:18:02;22.23;;;14.00;;
13660;SDS011;6903;49.480;11.102;2022-12-07T08:20:29;20.17;;;13.57;;
13660;SDS011;6903;49.480;11.102;2022-12-07T08:22:56;22.27;;;14.60;;
13660;SDS011;6903;49.480;11.102;2022-12-07T08:25:21;21.73;;;14.00;;
13660;SDS011;6903;49.480;11.102;2022-12-07T08:27:47;23.90;;;14.80;;
13660;SDS011;6903;49.480;11.102;2022-12-07T08:30:13;19.00;;;12.87;;
13660;SDS011;6903;49.480;11.102;2022-12-07T08:32:38;19.83;;;12.80;;
13660;SDS011;6903;49.480;11.102;2022-12-07T08:35:04;19.57;;;13.67;;
13660;SDS011;6903;49.480;11.102;2022-12-07T08:37:30;19.83;;;13.50;;
13660;SDS011;6903;49.480;11.102;2022-12-07T08:39:56;21.40;;;13.97;;
13660;SDS011;6903;49.480;11.102;2022-12-07T08:42:21;21.03;;;13.30;;
13660;SDS011;6903;49.480;11.102;2022-12-07T08:44:48;18.90;;;12.93;;
13660;SDS011;6903;49.480;11.102;2022-12-07T08:47:13;20.33;;;13.67;;
13660;SDS011;6903;49.480;11.102;2022-12-07T08:49:40;21.03;;;13.37;;
13660;SDS011;6903;49.480;11.102;2022-12-07T08:52:08;20.83;;;13.30;;
13660;SDS011;6903;49.480;11.102;2022-12-07T08:54:34;21.17;;;13.10;;
13660;SDS011;6903;49.480;11.102;2022-12-07T08:57:03;19.13;;;12.37;;
13660;SDS011;6903;49.480;11.102;2022-12-07T08:59:29;19.73;;;13.23;;
13660;SDS011;6903;49.480;11.102;2022-12-07T09:01:55;18.87;;;12.67;;
13660;SDS011;6903;49.480;11.102;2022-12-07T09:04:20;18.80;;;11.57;;
13660;SDS011;6903;49.480;11.102;2022-12-07T09:06:46;16.97;;;11.27;;
13660;SDS011;6903;49.480;11.102;2022-12-07T09:09:12;15.57;;;10.97;;
13660;SDS011;6903;49.480;11.102;2022-12-07T09:11:38;15.27;;;10.13;;
13660;SDS011;6903;49.480;11.102;2022-12-07T09:14:04;16.93;;;10.73;;
13660;SDS011;6903;49.480;11.102;2022-12-07T09:16:29;14.77;;;10.10;;
13660;SDS011;6903;49.480;11.102;2022-12-07T09:18:55;15.20;;;10.57;;
13660;SDS011;6903;49.480;11.102;2022-12-07T09:21:20;14.90;;;10.10;;
13660;SDS011;6903;49.480;11.102;2022-12-07T09:23:45;14.93;;;9.97;;
13660;SDS011;6903;49.480;11.102;2022-12-07T09:26:11;14.27;;;9.57;;
13660;SDS011;6903;49.480;11.102;2022-12-07T09:28:36;15.20;;;10.40;;
13660;SDS011;6903;49.480;11.102;2022-12-07T09:31:02;14.50;;;10.27;;
13660;SDS011;6903;49.480;11.102;2022-12-07T09:33:28;13.00;;;10.07;;
13660;SDS011;6903;49.480;11.102;2022-12-07T09:35:53;13.87;;;9.60;;
13660;SDS011;6903;49.480;11.102;2022-12-07T09:38:19;14.63;;;10.13;;
13660;SDS011;6903;49.480;11.102;2022-12-07T09:40:45;14.00;;;9.83;;
13660;SDS011;6903;49.480;11.102;2022-12-07T09:43:12;16.00;;;9.60;;
13660;SDS011;6903;49.480;11.102;2022-12-07T09:45:43;13.63;;;9.63;;
13660;SDS011;6903;49.480;11.102;2022-12-07T09:48:30;17.30;;;10.50;;
13660;SDS011;6903;49.480;11.102;2022-12-07T09:50:59;15.20;;;10.37;;
13660;SDS011;6903;49.480;11.102;2022-12-07T09:53:35;16.60;;;10.20;;
13660;SDS011;6903;49.480;11.102;2022-12-07T09:56:03;15.00;;;10.43;;
13660;SDS011;6903;49.480;11.102;2022-12-07T09:58:29;16.07;;;10.30;;
13660;SDS011;6903;49.480;11.102;2022-12-07T10:01:00;14.87;;;10.50;;
13660;SDS011;6903;49.480;11.102;2022-12-07T10:03:53;15.13;;;10.33;;
13660;SDS011;6903;49.480;11.102;2022-12-07T10:06:23;15.27;;;10.50;;
13660;SDS011;6903;49.480;11.102;2022-12-07T10:08:49;15.23;;;10.20;;
13660;SDS011;6903;49.480;11.102;2022-12-07T10:11:14;14.93;;;10.17;;
13660;SDS011;6903;49.480;11.102;2022-12-07T10:13:48;20.30;;;13.17;;
13660;SDS011;6903;49.480;11.102;2022-12-07T10:18:49;14.53;;;10.50;;
13660;SDS011;6903;49.480;11.102;2022-12-07T10:21:16;14.30;;;10.37;;
13660;SDS011;6903;49.480;11.102;2022-12-07T10:29:02;12.57;;;9.13;;
13660;SDS011;6903;49.480;11.102;2022-12-07T10:31:40;15.83;;;10.43;;
13660;SDS011;6903;49.480;11.102;2022-12-07T10:34:12;16.43;;;10.07;;
13660;SDS011;6903;49.480;11.102;2022-12-07T10:36:47;14.07;;;9.67;;
13660;SDS011;6903;49.480;11.102;2022-12-07T10:44:28;13.30;;;9.43;;
13660;SDS011;6903;49.480;11.102;2022-12-07T10:52:18;15.63;;;10.70;;
13660;SDS011;6903;49.480;11.102;2022-12-07T10:57:44;12.93;;;9.23;;
13660;SDS011;6903;49.480;11.102;2022-12-07T11:03:02;12.50;;;9.20;;
13660;SDS011;6903;49.480;11.102;2022-12-07T11:08:44;12.23;;;9.50;;
13660;SDS011;6903;49.480;11.102;2022-12-07T11:21:56;12.83;;;9.20;;
13660;SDS011;6903;49.480;11.102;2022-12-07T11:24:32;12.33;;;9.57;;
13660;SDS011;6903;49.480;11.102;2022-12-07T11:27:13;12.50;;;9.33;;
13660;SDS011;6903;49.480;11.102;2022-12-07T11:30:16;14.60;;;9.63;;
13660;SDS011;6903;49.480;11.102;2022-12-07T11:32:58;12.60;;;8.67;;
13660;SDS011;6903;49.480;11.102;2022-12-07T11:36:07;12.43;;;9.40;;
13660;SDS011;6903;49.480;11.102;2022-12-07T11:38:48;14.57;;;10.63;;
13660;SDS011;6903;49.480;11.102;2022-12-07T11:41:19;14.73;;;10.10;;
13660;SDS011;6903;49.480;11.102;2022-12-07T11:43:56;11.67;;;9.47;;
13660;SDS011;6903;49.480;11.102;2022-12-07T11:49:20;12.93;;;9.90;;
13660;SDS011;6903;49.480;11.102;2022-12-07T11:51:53;12.70;;;10.00;;
13660;SDS011;6903;49.480;11.102;2022-12-07T11:54:23;12.63;;;9.53;;
13660;SDS011;6903;49.480;11.102;2022-12-07T11:56:54;13.30;;;10.13;;
13660;SDS011;6903;49.480;11.102;2022-12-07T11:59:38;13.27;;;9.73;;
13660;SDS011;6903;49.480;11.102;2022-12-07T12:02:12;14.73;;;10.40;;
13660;SDS011;6903;49.480;11.102;2022-12-07T12:04:54;11.30;;;9.63;;
13660;SDS011;6903;49.480;11.102;2022-12-07T12:07:25;12.90;;;10.47;;
13660;SDS011;6903;49.480;11.102;2022-12-07T12:09:59;14.60;;;10.50;;
13660;SDS011;6903;49.480;11.102;2022-12-07T12:18:11;12.93;;;10.00;;
13660;SDS011;6903;49.480;11.102;2022-12-07T12:23:44;14.13;;;10.73;;
13660;SDS011;6903;49.480;11.102;2022-12-07T12:26:18;12.57;;;10.13;;
13660;SDS011;6903;49.480;11.102;2022-12-07T12:28:53;13.40;;;10.00;;
13660;SDS011;6903;49.480;11.102;2022-12-07T12:33:53;13.27;;;9.87;;
13660;SDS011;6903;49.480;11.102;2022-12-07T12:36:24;14.17;;;9.63;;
13660;SDS011;6903;49.480;11.102;2022-12-07T12:44:01;13.77;;;9.90;;
13660;SDS011;6903;49.480;11.102;2022-12-07T12:51:49;11.30;;;9.60;;
13660;SDS011;6903;49.480;11.102;2022-12-07T12:54:19;13.23;;;9.73;;
13660;SDS011;6903;49.480;11.102;2022-12-07T13:01:46;12.77;;;9.13;;
13660;SDS011;6903;49.480;11.102;2022-12-07T13:06:52;14.20;;;10.67;;
13660;SDS011;6903;49.480;11.102;2022-12-07T13:09:27;12.33;;;10.00;;
13660;SDS011;6903;49.480;11.102;2022-12-07T13:12:00;14.57;;;10.80;;
13660;SDS011;6903;49.480;11.102;2022-12-07T13:14:37;13.33;;;10.00;;
13660;SDS011;6903;49.480;11.102;2022-12-07T13:20:04;13.97;;;10.50;;
13660;SDS011;6903;49.480;11.102;2022-12-07T13:25:21;12.60;;;10.07;;
13660;SDS011;6903;49.480;11.102;2022-12-07T13:27:55;12.00;;;9.47;;
13660;SDS011;6903;49.480;11.102;2022-12-07T13:30:25;12.93;;;9.50;;
13660;SDS011;6903;49.480;11.102;2022-12-07T13:32:55;13.23;;;9.97;;
13660;SDS011;6903;49.480;11.102;2022-12-07T13:35:30;12.13;;;8.67;;
13660;SDS011;6903;49.480;11.102;2022-12-07T13:38:15;13.63;;;9.70;;
13660;SDS011;6903;49.480;11.102;2022-12-07T13:41:05;13.37;;;9.47;;
13660;SDS011;6903;49.480;11.102;2022-12-07T13:46:30;11.27;;;8.77;;
13660;SDS011;6903;49.480;11.102;2022-12-07T13:49:15;14.93;;;9.70;;
13660;SDS011;6903;49.480;11.102;2022-12-07T13:51:44;14.03;;;10.83;;
13660;SDS011;6903;49.480;11.102;2022-12-07T13:54:10;13.63;;;9.70;;
13660;SDS011;6903;49.480;11.102;2022-12-07T13:56:37;13.00;;;10.13;;
13660;SDS011;6903;49.480;11.102;2022-12-07T13:59:04;15.00;;;10.70;;
13660;SDS011;6903;49.480;11.102;2022-12-07T14:01:37;14.33;;;10.67;;
13660;SDS011;6903;49.480;11.102;2022-12-07T14:07:01;13.07;;;9.37;;
13660;SDS011;6903;49.480;11.102;2022-12-07T14:09:52;12.70;;;9.57;;
13660;SDS011;6903;49.480;11.102;2022-12-07T14:12:19;11.57;;;8.77;;
13660;SDS011;6903;49.480;11.102;2022-12-07T14:14:46;15.20;;;10.37;;
13660;SDS011;6903;49.480;11.102;2022-12-07T14:17:18;14.63;;;10.70;;
13660;SDS011;6903;49.480;11.102;2022-12-07T14:19:47;13.30;;;10.10;;
13660;SDS011;6903;49.480;11.102;2022-12-07T14:22:22;12.30;;;9.53;;
13660;SDS011;6903;49.480;11.102;2022-12-07T14:27:36;13.13;;;9.60;;
13660;SDS011;6903;49.480;11.102;2022-12-07T14:30:02;14.37;;;10.23;;
13660;SDS011;6903;49.480;11.102;2022-12-07T14:32:29;11.90;;;8.70;;
13660;SDS011;6903;49.480;11.102;2022-12-07T14:37:23;9.33;;;7.40;;
13660;SDS011;6903;49.480;11.102;2022-12-07T14:39:49;9.73;;;7.47;;
13660;SDS011;6903;49.480;11.102;2022-12-07T14:42:14;7.00;;;5.57;;
13660;SDS011;6903;49.480;11.102;2022-12-07T14:44:39;6.63;;;5.10;;
13660;SDS011;6903;49.480;11.102;2022-12-07T14:47:05;6.43;;;5.07;;
13660;SDS011;6903;49.480;11.102;2022-12-07T14:49:30;7.40;;;4.27;;
13660;SDS011;6903;49.480;11.102;2022-12-07T14:51:55;6.50;;;5.03;;
13660;SDS011;6903;49.480;11.102;2022-12-07T14:54:21;6.27;;;5.00;;
13660;SDS011;6903;49.480;11.102;2022-12-07T14:56:52;6.67;;;4.47;;
13660;SDS011;6903;49.480;11.102;2022-12-07T14:59:18;6.67;;;4.60;;
13660;SDS011;6903;49.480;11.102;2022-12-07T15:01:43;6.20;;;5.00;;
13660;SDS011;6903;49.480;11.102;2022-12-07T15:04:09;5.93;;;4.07;;
13660;SDS011;6903;49.480;11.102;2022-12-07T15:06:34;6.17;;;4.50;;
13660;SDS011;6903;49.480;11.102;2022-12-07T15:09:00;6.97;;;4.97;;
13660;SDS011;6903;49.480;11.102;2022-12-07T15:11:25;8.10;;;5.10;;
13660;SDS011;6903;49.480;11.102;2022-12-07T15:13:50;8.53;;;5.60;;
13660;SDS011;6903;49.480;11.102;2022-12-07T15:16:36;8.20;;;6.30;;
13660;SDS011;6903;49.480;11.102;2022-12-07T15:19:04;8.50;;;7.00;;
13660;SDS011;6903;49.480;11.102;2022-12-07T15:21:30;9.30;;;6.97;;
13660;SDS011;6903;49.480;11.102;2022-12-07T15:23:55;11.00;;;7.60;;
13660;SDS011;6903;49.480;11.102;2022-12-07T15:26:20;11.60;;;7.60;;
13660;SDS011;6903;49.480;11.102;2022-12-07T15:28:46;18.07;;;12.23;;
13660;SDS011;6903;49.480;11.102;2022-12-07T15:31:15;13.07;;;9.40;;
13660;SDS011;6903;49.480;11.102;2022-12-07T15:33:41;13.63;;;9.57;;
13660;SDS011;6903;49.480;11.102;2022-12-07T15:36:07;12.53;;;9.03;;
13660;SDS011;6903;49.480;11.102;2022-12-07T15:38:34;15.20;;;9.53;;
13660;SDS011;6903;49.480;11.102;2022-12-07T15:41:00;13.00;;;9.33;;
13660;SDS011;6903;49.480;11.102;2022-12-07T15:43:25;14.77;;;9.90;;
13660;SDS011;6903;49.480;11.102;2022-12-07T15:46:09;15.17;;;10.07;;
13660;SDS011;6903;49.480;11.102;2022-12-07T15:48:34;18.43;;;12.70;;
13660;SDS011;6903;49.480;11.102;2022-12-07T15:51:03;20.80;;;13.97;;
13660;SDS011;6903;49.480;11.102;2022-12-07T15:53:30;24.50;;;15.63;;
13660;SDS011;6903;49.480;11.102;2022-12-07T15:55:56;21.90;;;14.60;;
13660;SDS011;6903;49.480;11.102;2022-12-07T15:58:21;26.53;;;16.47;;
13660;SDS011;6903;49.480;11.102;2022-12-07T16:00:46;24.93;;;16.10;;
13660;SDS011;6903;49.480;11.102;2022-12-07T16:03:13;25.60;;;16.23;;
13660;SDS011;6903;49.480;11.102;2022-12-07T16:05:38;25.30;;;16.93;;
13660;SDS011;6903;49.480;11.102;2022-12-07T16:08:03;29.10;;;17.23;;
13660;SDS011;6903;49.480;11.102;2022-12-07T16:10:29;25.87;;;16.50;;
13660;SDS011;6903;49.480;11.102;2022-12-07T16:12:54;22.83;;;14.80;;
13660;SDS011;6903;49.480;11.102;2022-12-07T16:15:20;23.27;;;15.53;;
13660;SDS011;6903;49.480;11.102;2022-12-07T16:17:45;23.70;;;16.23;;
13660;SDS011;6903;49.480;11.102;2022-12-07T16:20:11;27.23;;;15.73;;
13660;SDS011;6903;49.480;11.102;2022-12-07T16:22:36;26.03;;;17.03;;
13660;SDS011;6903;49.480;11.102;2022-12-07T16:25:02;26.73;;;17.17;;
13660;SDS011;6903;49.480;11.102;2022-12-07T16:27:27;26.80;;;17.83;;
13660;SDS011;6903;49.480;11.102;2022-12-07T16:29:53;26.13;;;17.40;;
13660;SDS011;6903;49.480;11.102;2022-12-07T16:32:18;25.33;;;16.90;;
13660;SDS011;6903;49.480;11.102;2022-12-07T16:34:43;27.07;;;17.30;;
13660;SDS011;6903;49.480;11.102;2022-12-07T16:37:09;28.47;;;18.60;;
13660;SDS011;6903;49.480;11.102;2022-12-07T16:39:34;26.90;;;17.17;;
13660;SDS011;6903;49.480;11.102;2022-12-07T16:42:00;24.23;;;16.13;;